Time;durP1;ratioP1;P1;durP2;ratioP2;P2;SDS_P1;SDS_P2;PMS_P1;PMS_P2;Temp;Humidity;BMP_temperature;BMP_pressure;BME280_temperature;BME280_humidity;BME280_pressure;Samples;Min_cycle;Max_cycle;Signal;HPM_P1;HPM_P2
2022/09/23 00:02:09;;;;;;;;;;;;;;;;;;5082280;28;906;-68
2022/09/23 00:04:34;;;;;;;;;;;;;;;;;;5081184;28;1255;-67
2022/09/23 00:06:59;;;;;;;;;;;;;;;;;;5082177;28;918;-68
2022/09/23 00:09:25;;;;;;;;;;;;;;;;;;5082065;28;1893;-68
2022/09/23 00:11:50;;;;;;;;;;;;;;;;;;5081904;28;881;-68
2022/09/23 00:14:16;;;;;;;;;;;;;;;;;;5094431;22;3735;-75
2022/09/23 00:16:41;;;;;;;;;;;;;;;;;;5080713;28;841;-75
2022/09/23 00:19:06;;;;;;;;;;;;;;;;;;5081418;28;942;-75
2022/09/23 00:21:32;;;;;;;;;;;;;;;;;;5081437;28;756;-75
2022/09/23 00:23:57;;;;;;;;;;;;;;;;;;5063086;28;1172;-75
2022/09/23 00:26:22;;;;;;;;;;;;;;;;;;5080263;28;786;-75
2022/09/23 00:28:48;;;;;;;;;;;;;;;;;;5081131;28;1914;-76
2022/09/23 00:31:14;;;;;;;;;;;;;;;;;;5080945;28;893;-75
2022/09/23 00:33:40;;;;;;;;;;;;;;;;;;5080896;28;795;-76
2022/09/23 00:36:06;;;;;;;;;;;;;;;;;;5080306;28;1168;-76
2022/09/23 00:38:32;;;;;;;;;;;;;;;;;;5081070;28;947;-75
2022/09/23 00:40:58;;;;;;;;;;;;;;;;;;5080870;28;854;-75
2022/09/23 00:43:42;;;;;;;;;;;;;;;;;;5081080;28;1052;-75
2022/09/23 00:46:08;;;;;;;;;;;;;;;;;;5080065;28;1235;-75
2022/09/23 00:48:34;;;;;;;;;;;;;;;;;;5080939;28;838;-75
2022/09/23 00:51:00;;;;;;;;;;;;;;;;;;5080814;28;1016;-75
2022/09/23 00:53:25;;;;;;;;;;;;;;;;;;5080188;28;1055;-75
2022/09/23 00:55:56;;;;;;;;;;;;;;;;;;5079827;28;1173;-75
2022/09/23 00:58:23;;;;;;;;;;;;;;;;;;5080850;28;877;-75
2022/09/23 01:00:49;;;;;;;;;;;;;;;;;;5080685;28;885;-75
2022/09/23 01:03:14;;;;;;;;;;;;;;;;;;5080770;28;787;-75
2022/09/23 01:05:40;;;;;;;;;;;;;;;;;;5079852;28;1140;-75
2022/09/23 01:08:07;;;;;;;;;;;;;;;;;;5080925;28;892;-75
2022/09/23 01:10:36;;;;;;;;;;;;;;;;;;5080574;28;1965;-75
2022/09/23 01:13:14;;;;;;;;;;;;;;;;;;5080454;28;980;-75
2022/09/23 01:15:48;;;;;;;;;;;;;;;;;;5079701;28;1215;-75
2022/09/23 01:18:31;;;;;;;;;;;;;;;;;;5080595;28;997;-75
2022/09/23 01:21:26;;;;;;;;;;;;;;;;;;5080329;28;997;-76
2022/09/23 01:24:06;;;;;;;;;;;;;;;;;;5058407;28;1271;-75
2022/09/23 01:26:47;;;;;;;;;;;;;;;;;;5079750;28;756;-75
2022/09/23 01:29:32;;;;;;;;;;;;;;;;;;5080363;28;1953;-75
2022/09/23 01:32:15;;;;;;;;;;;;;;;;;;5080200;28;901;-76
2022/09/23 01:34:56;;;;;;;;;;;;;;;;;;5079550;28;1263;-75
2022/09/23 01:37:23;;;;;;;;;;;;;;;;;;5080124;28;1028;-76
2022/09/23 01:40:04;;;;;;;;;;;;;;;;;;5080339;28;901;-75
2022/09/23 01:42:34;;;;;;;;;;;;;;;;;;5062078;28;1598;-75
2022/09/23 01:45:04;;;;;;;;;;;;;;;;;;5079430;28;1226;-75
2022/09/23 01:47:34;;;;;;;;;;;;;;;;;;5080088;28;917;-75
2022/09/23 01:52:51;;;;;;;;;;;;;;;;;;5080373;28;621;-76
2022/09/23 01:55:21;;;;;;;;;;;;;;;;;;5079433;28;1140;-76
2022/09/23 01:57:48;;;;;;;;;;;;;;;;;;5080092;28;988;-76
2022/09/23 02:00:15;;;;;;;;;;;;;;;;;;5080108;28;815;-75
2022/09/23 02:02:48;;;;;;;;;;;;;;;;;;5079952;28;926;-75
2022/09/23 02:05:17;;;;;;;;;;;;;;;;;;5080045;28;1258;-75
2022/09/23 02:07:50;;;;;;;;;;;;;;;;;;5083333;28;881;-75
2022/09/23 02:10:23;;;;;;;;;;;;;;;;;;5083388;28;1898;-76
2022/09/23 02:12:51;;;;;;;;;;;;;;;;;;5083281;28;833;-76
2022/09/23 02:15:18;;;;;;;;;;;;;;;;;;5082640;28;1155;-75
2022/09/23 02:17:59;;;;;;;;;;;;;;;;;;5083285;28;827;-75
2022/09/23 02:20:28;;;;;;;;;;;;;;;;;;5083380;28;893;-75
2022/09/23 02:23:13;;;;;;;;;;;;;;;;;;5083126;28;997;-75
2022/09/23 02:25:39;;;;;;;;;;;;;;;;;;5081687;28;1174;-75
2022/09/23 02:28:09;;;;;;;;;;;;;;;;;;5083084;28;898;-75
2022/09/23 02:30:41;;;;;;;;;;;;;;;;;;5083045;28;1960;-75
2022/09/23 02:33:10;;;;;;;;;;;;;;;;;;5083037;28;857;-75
2022/09/23 02:35:42;;;;;;;;;;;;;;;;;;5082330;28;1144;-76
2022/09/23 02:38:10;;;;;;;;;;;;;;;;;;5083018;28;798;-75
2022/09/23 02:40:41;;;;;;;;;;;;;;;;;;5083165;28;759;-75
2022/09/23 02:43:13;;;;;;;;;;;;;;;;;;5082935;28;830;-75
2022/09/23 02:45:39;;;;;;;;;;;;;;;;;;5082094;28;1151;-76
2022/09/23 02:48:06;;;;;;;;;;;;;;;;;;5082768;28;901;-76
2022/09/23 02:50:32;;;;;;;;;;;;;;;;;;5082999;28;1972;-76
2022/09/23 02:52:58;;;;;;;;;;;;;;;;;;5082753;28;795;-75
2022/09/23 02:55:24;;;;;;;;;;;;;;;;;;5082101;28;1152;-75
2022/09/23 02:57:51;;;;;;;;;;;;;;;;;;5082889;28;894;-76
2022/09/23 03:00:16;;;;;;;;;;;;;;;;;;5082793;28;846;-76
2022/09/23 03:03:00;;;;;;;;;;;;;;;;;;5082641;28;913;-76
2022/09/23 03:05:30;;;;;;;;;;;;;;;;;;5081806;28;1152;-75
2022/09/23 03:08:01;;;;;;;;;;;;;;;;;;5082612;28;897;-75
2022/09/23 03:10:34;;;;;;;;;;;;;;;;;;5082483;28;1906;-75
2022/09/23 03:13:17;;;;;;;;;;;;;;;;;;5082769;28;993;-76
2022/09/23 03:15:51;;;;;;;;;;;;;;;;;;5081533;28;1227;-75
2022/09/23 03:18:19;;;;;;;;;;;;;;;;;;5081678;28;874;-75
2022/09/23 03:20:57;;;;;;;;;;;;;;;;;;5082362;28;806;-75
2022/09/23 03:23:25;;;;;;;;;;;;;;;;;;5082287;28;969;-75
2022/09/23 03:25:53;;;;;;;;;;;;;;;;;;5081477;28;1162;-76
2022/09/23 03:28:20;;;;;;;;;;;;;;;;;;5082480;28;799;-75
2022/09/23 03:30:46;;;;;;;;;;;;;;;;;;5082168;28;1957;-75
2022/09/23 03:33:14;;;;;;;;;;;;;;;;;;5082301;28;806;-75
2022/09/23 03:38:36;;;;;;;;;;;;;;;;;;5082452;28;942;-75
2022/09/23 03:41:03;;;;;;;;;;;;;;;;;;5082024;28;815;-75
2022/09/23 03:43:28;;;;;;;;;;;;;;;;;;5082056;28;799;-75
2022/09/23 03:45:57;;;;;;;;;;;;;;;;;;5080974;28;1129;-76
2022/09/23 03:48:24;;;;;;;;;;;;;;;;;;5081737;28;822;-75
2022/09/23 03:50:50;;;;;;;;;;;;;;;;;;5081508;28;1957;-75
2022/09/23 03:53:17;;;;;;;;;;;;;;;;;;5081780;28;906;-75
2022/09/23 03:55:42;;;;;;;;;;;;;;;;;;5081211;28;1164;-76
2022/09/23 03:58:07;;;;;;;;;;;;;;;;;;5081690;28;869;-75
2022/09/23 04:00:34;;;;;;;;;;;;;;;;;;5081513;28;937;-75
2022/09/23 04:03:00;;;;;;;;;;;;;;;;;;5081550;28;802;-75
2022/09/23 04:05:25;;;;;;;;;;;;;;;;;;5080608;28;1276;-76
2022/09/23 04:07:51;;;;;;;;;;;;;;;;;;5081556;28;877;-75
2022/09/23 04:10:16;;;;;;;;;;;;;;;;;;5081377;28;1964;-75
2022/09/23 04:12:41;;;;;;;;;;;;;;;;;;5081541;28;1040;-75
2022/09/23 04:15:06;;;;;;;;;;;;;;;;;;5080663;28;1261;-75
2022/09/23 04:17:32;;;;;;;;;;;;;;;;;;5081644;28;861;-75
2022/09/23 04:19:57;;;;;;;;;;;;;;;;;;5081162;28;969;-75
2022/09/23 04:22:22;;;;;;;;;;;;;;;;;;5081429;28;774;-75
2022/09/23 04:24:48;;;;;;;;;;;;;;;;;;5080731;28;1303;-75
2022/09/23 04:27:13;;;;;;;;;;;;;;;;;;5081170;28;818;-75
2022/09/23 04:29:38;;;;;;;;;;;;;;;;;;5081026;28;1965;-75
2022/09/23 04:32:03;;;;;;;;;;;;;;;;;;5081121;28;818;-75
2022/09/23 04:34:28;;;;;;;;;;;;;;;;;;5080279;28;1196;-75
2022/09/23 04:36:54;;;;;;;;;;;;;;;;;;5080913;28;1226;-76
2022/09/23 04:39:19;;;;;;;;;;;;;;;;;;5081167;28;953;-75
2022/09/23 04:41:44;;;;;;;;;;;;;;;;;;5080916;28;893;-75
2022/09/23 04:44:10;;;;;;;;;;;;;;;;;;5080931;28;1270;-76
2022/09/23 04:46:36;;;;;;;;;;;;;;;;;;5079907;28;973;-75
2022/09/23 04:49:01;;;;;;;;;;;;;;;;;;5080803;28;1956;-75
2022/09/23 04:51:27;;;;;;;;;;;;;;;;;;5080800;28;831;-75
2022/09/23 04:53:53;;;;;;;;;;;;;;;;;;5080840;28;1258;-75
2022/09/23 04:56:22;;;;;;;;;;;;;;;;;;5079951;28;929;-75
2022/09/23 04:58:48;;;;;;;;;;;;;;;;;;5080708;28;1058;-75
2022/09/23 05:01:15;;;;;;;;;;;;;;;;;;5080654;28;977;-75
2022/09/23 05:03:41;;;;;;;;;;;;;;;;;;5080760;28;969;-75
2022/09/23 05:06:07;;;;;;;;;;;;;;;;;;5080009;28;1089;-75
2022/09/23 05:08:33;;;;;;;;;;;;;;;;;;5080790;28;779;-75
2022/09/23 05:10:59;;;;;;;;;;;;;;;;;;5080470;28;1961;-75
2022/09/23 05:13:25;;;;;;;;;;;;;;;;;;5080591;28;925;-75
2022/09/23 05:15:55;;;;;;;;;;;;;;;;;;5079858;28;1156;-75
2022/09/23 05:18:21;;;;;;;;;;;;;;;;;;5080647;28;988;-75
2022/09/23 05:20:51;;;;;;;;;;;;;;;;;;5080629;28;854;-75
2022/09/23 05:23:16;;;;;;;;;;;;;;;;;;5080647;28;992;-75
2022/09/23 05:25:44;;;;;;;;;;;;;;;;;;5079873;28;1176;-75
2022/09/23 05:28:09;;;;;;;;;;;;;;;;;;5080338;28;861;-75
2022/09/23 05:30:34;;;;;;;;;;;;;;;;;;5080311;28;1966;-75
2022/09/23 05:33:00;;;;;;;;;;;;;;;;;;5080303;28;965;-75
2022/09/23 05:35:25;;;;;;;;;;;;;;;;;;5079781;28;1155;-75
2022/09/23 05:37:50;;;;;;;;;;;;;;;;;;5080295;28;865;-75
2022/09/23 05:40:16;;;;;;;;;;;;;;;;;;5081254;28;882;-75
2022/09/23 05:42:41;;;;;;;;;;;;;;;;;;5083750;28;853;-75
2022/09/23 05:45:07;;;;;;;;;;;;;;;;;;5083046;28;1183;-75
2022/09/23 05:47:32;;;;;;;;;;;;;;;;;;5082816;28;878;-75
2022/09/23 05:49:58;;;;;;;;;;;;;;;;;;5083893;28;1897;-75
2022/09/23 05:52:24;;;;;;;;;;;;;;;;;;5083637;28;870;-75
2022/09/23 05:54:49;;;;;;;;;;;;;;;;;;5082858;28;1273;-75
2022/09/23 05:57:14;;;;;;;;;;;;;;;;;;5083488;28;877;-75
2022/09/23 05:59:41;;;;;;;;;;;;;;;;;;5083665;28;952;-75
2022/09/23 06:02:07;;;;;;;;;;;;;;;;;;5083812;28;849;-75
2022/09/23 06:04:32;;;;;;;;;;;;;;;;;;5082856;28;1159;-75
2022/09/23 06:06:57;;;;;;;;;;;;;;;;;;5083510;28;795;-75
2022/09/23 06:09:22;;;;;;;;;;;;;;;;;;5083308;28;1890;-75
2022/09/23 06:11:49;;;;;;;;;;;;;;;;;;5083365;28;1036;-75
2022/09/23 06:14:14;;;;;;;;;;;;;;;;;;5083139;28;1282;-75
2022/09/23 06:16:40;;;;;;;;;;;;;;;;;;5109558;22;2200;-75
2022/09/23 06:19:05;;;;;;;;;;;;;;;;;;5104014;28;807;-74
2022/09/23 06:21:31;;;;;;;;;;;;;;;;;;5104001;28;873;-74
2022/09/23 06:23:59;;;;;;;;;;;;;;;;;;5104180;28;869;-77
2022/09/23 06:26:24;;;;;;;;;;;;;;;;;;5103422;28;1183;-77
2022/09/23 06:28:49;;;;;;;;;;;;;;;;;;5104550;28;1905;-77
2022/09/23 06:31:15;;;;;;;;;;;;;;;;;;5104436;28;1055;-77
2022/09/23 06:33:41;;;;;;;;;;;;;;;;;;5104057;28;861;-77
2022/09/23 06:36:07;;;;;;;;;;;;;;;;;;5103057;28;1163;-77
2022/09/23 06:38:33;;;;;;;;;;;;;;;;;;5103859;28;849;-75
2022/09/23 06:40:58;;;;;;;;;;;;;;;;;;5103684;28;822;-74
2022/09/23 06:43:24;;;;;;;;;;;;;;;;;;5103639;28;1043;-75
2022/09/23 06:45:53;;;;;;;;;;;;;;;;;;5103061;28;1167;-74
2022/09/23 06:48:19;;;;;;;;;;;;;;;;;;5103468;28;1024;-75
2022/09/23 06:50:44;;;;;;;;;;;;;;;;;;5102328;28;1902;-74
2022/09/23 06:53:09;;;;;;;;;;;;;;;;;;5102557;28;940;-74
2022/09/23 06:55:34;;;;;;;;;;;;;;;;;;5103333;28;1160;-77
2022/09/23 06:57:59;;;;;;;;;;;;;;;;;;5104048;28;866;-75
2022/09/23 07:00:25;;;;;;;;;;;;;;;;;;5104029;28;984;-76
2022/09/23 07:02:50;;;;;;;;;;;;;;;;;;5103870;28;865;-76
2022/09/23 07:05:16;;;;;;;;;;;;;;;;;;5103736;28;1259;-76
2022/09/23 07:07:41;;;;;;;;;;;;;;;;;;5103716;28;818;-76
2022/09/23 07:10:06;;;;;;;;;;;;;;;;;;5103181;28;1914;-75
2022/09/23 07:12:32;;;;;;;;;;;;;;;;;;5103308;28;818;-75
2022/09/23 07:14:57;;;;;;;;;;;;;;;;;;5102463;28;1266;-75
2022/09/23 07:17:23;;;;;;;;;;;;;;;;;;5103007;28;1004;-75
2022/09/23 07:19:48;;;;;;;;;;;;;;;;;;5102972;28;925;-75
2022/09/23 07:22:13;;;;;;;;;;;;;;;;;;5103055;28;1055;-76
2022/09/23 07:24:39;;;;;;;;;;;;;;;;;;5102401;28;893;-76
2022/09/23 07:27:04;;;;;;;;;;;;;;;;;;5102920;28;1247;-76
2022/09/23 07:29:30;;;;;;;;;;;;;;;;;;5102910;28;1898;-76
2022/09/23 07:31:55;;;;;;;;;;;;;;;;;;5103012;28;997;-76
2022/09/23 07:34:20;;;;;;;;;;;;;;;;;;5102673;28;1056;-76
2022/09/23 07:36:46;;;;;;;;;;;;;;;;;;5102478;28;1160;-76
2022/09/23 07:39:11;;;;;;;;;;;;;;;;;;5102661;28;902;-75
2022/09/23 07:41:36;;;;;;;;;;;;;;;;;;5102862;28;1043;-75
2022/09/23 07:44:02;;;;;;;;;;;;;;;;;;5102886;28;834;-75
2022/09/23 07:46:31;;;;;;;;;;;;;;;;;;5102016;28;1160;-75
2022/09/23 07:48:56;;;;;;;;;;;;;;;;;;5102615;28;1910;-75
2022/09/23 07:51:24;;;;;;;;;;;;;;;;;;5102874;28;877;-75
2022/09/23 07:53:50;;;;;;;;;;;;;;;;;;5102684;28;810;-74
2022/09/23 07:56:16;;;;;;;;;;;;;;;;;;5102213;28;1171;-74
2022/09/23 07:58:41;;;;;;;;;;;;;;;;;;5102789;28;821;-75
2022/09/23 08:01:07;;;;;;;;;;;;;;;;;;5102471;28;775;-75
2022/09/23 08:03:33;;;;;;;;;;;;;;;;;;5102452;28;810;-75
2022/09/23 08:06:09;;;;;;;;;;;;;;;;;;5102227;28;1253;-75
2022/09/23 08:08:38;;;;;;;;;;;;;;;;;;5102639;28;822;-75
2022/09/23 08:11:04;;;;;;;;;;;;;;;;;;5102304;28;1945;-75
2022/09/23 08:13:29;;;;;;;;;;;;;;;;;;5102339;28;1134;-75
2022/09/23 08:15:54;;;;;;;;;;;;;;;;;;5100746;28;1168;-75
2022/09/23 08:18:20;;;;;;;;;;;;;;;;;;5102184;28;1012;-75
2022/09/23 08:20:46;;;;;;;;;;;;;;;;;;5101027;28;744;-75
2022/09/23 08:23:12;;;;;;;;;;;;;;;;;;5102080;28;830;-76
2022/09/23 08:25:38;;;;;;;;;;;;;;;;;;5101731;28;1260;-75
2022/09/23 08:28:03;;;;;;;;;;;;;;;;;;5102121;28;810;-76
2022/09/23 08:30:28;;;;;;;;;;;;;;;;;;5101802;28;1957;-76
2022/09/23 08:32:53;;;;;;;;;;;;;;;;;;5102035;28;985;-76
2022/09/23 08:35:19;;;;;;;;;;;;;;;;;;5101657;28;1179;-75
2022/09/23 08:37:44;;;;;;;;;;;;;;;;;;5101817;28;892;-75
2022/09/23 08:40:09;;;;;;;;;;;;;;;;;;5101885;28;812;-76
2022/09/23 08:42:38;;;;;;;;;;;;;;;;;;5101776;28;993;-76
2022/09/23 08:45:04;;;;;;;;;;;;;;;;;;5083193;28;1197;-76
2022/09/23 08:47:29;;;;;;;;;;;;;;;;;;5101667;28;1127;-76
2022/09/23 08:50:04;;;;;;;;;;;;;;;;;;5101725;28;1882;-76
2022/09/23 08:52:48;;;;;;;;;;;;;;;;;;5101806;28;865;-76
2022/09/23 08:55:14;;;;;;;;;;;;;;;;;;5101556;28;1172;-76
2022/09/23 08:57:42;;;;;;;;;;;;;;;;;;5101403;28;790;-76
2022/09/23 09:00:13;;;;;;;;;;;;;;;;;;5101926;28;810;-76
2022/09/23 09:02:38;;;;;;;;;;;;;;;;;;5101515;28;861;-76
2022/09/23 09:05:08;;;;;;;;;;;;;;;;;;5101427;28;1151;-74
2022/09/23 09:07:34;;;;;;;;;;;;;;;;;;5101476;28;830;-75
2022/09/23 09:10:05;;;;;;;;;;;;;;;;;;5101410;28;1937;-77
2022/09/23 09:12:36;;;;;;;;;;;;;;;;;;5083193;28;1158;-77
2022/09/23 09:15:06;;;;;;;;;;;;;;;;;;5100293;28;1183;-75
2022/09/23 09:17:32;;;;;;;;;;;;;;;;;;5101370;28;917;-76
2022/09/23 09:20:11;;;;;;;;;;;;;;;;;;5083196;28;1320;-77
2022/09/23 09:22:48;;;;;;;;;;;;;;;;;;5101148;28;802;-77
2022/09/23 09:25:23;;;;;;;;;;;;;;;;;;5101010;28;1274;-76
2022/09/23 09:27:48;;;;;;;;;;;;;;;;;;5101158;28;885;-77
2022/09/23 09:30:14;;;;;;;;;;;;;;;;;;5101092;28;1905;-77
2022/09/23 09:32:47;;;;;;;;;;;;;;;;;;5101137;28;869;-77
2022/09/23 09:35:32;;;;;;;;;;;;;;;;;;5100844;28;1235;-77
2022/09/23 09:37:57;;;;;;;;;;;;;;;;;;5101184;28;846;-77
2022/09/23 09:40:22;;;;;;;;;;;;;;;;;;5083087;28;969;-77
2022/09/23 09:42:49;;;;;;;;;;;;;;;;;;5101071;28;988;-78
2022/09/23 09:45:34;;;;;;;;;;;;;;;;;;5100870;28;1270;-77
2022/09/23 09:48:16;;;;;;;;;;;;;;;;;;5101008;28;802;-77
2022/09/23 09:50:48;;;;;;;;;;;;;;;;;;5100958;28;1973;-78
2022/09/23 09:53:23;;;;;;;;;;;;;;;;;;5100944;28;866;-78
2022/09/23 09:55:57;;;;;;;;;;;;;;;;;;5100592;28;1164;-77
2022/09/23 09:58:22;;;;;;;;;;;;;;;;;;5100886;28;904;-77
2022/09/23 10:00:49;;;;;;;;;;;;;;;;;;5100917;28;865;-77
2022/09/23 10:03:44;;;;;;;;;;;;;;;;;;5100914;28;825;-77
2022/09/23 10:06:28;;;;;;;;;;;;;;;;;;5082910;28;1516;-76
2022/09/23 10:09:11;;;;;;;;;;;;;;;;;;5100620;28;774;-76
2022/09/23 10:11:36;;;;;;;;;;;;;;;;;;5100760;28;810;-76
2022/09/23 10:14:12;;;;;;;;;;;;;;;;;;5100615;28;873;-76
2022/09/23 10:16:38;;;;;;;;;;;;;;;;;;5100297;28;1286;-76
2022/09/23 10:19:12;;;;;;;;;;;;;;;;;;5100640;28;752;-76
2022/09/23 10:21:37;;;;;;;;;;;;;;;;;;5100649;28;921;-77
2022/09/23 10:24:04;;;;;;;;;;;;;;;;;;5100507;28;957;-78
2022/09/23 10:26:43;;;;;;;;;;;;;;;;;;5101539;28;1152;-78
2022/09/23 10:29:21;;;;;;;;;;;;;;;;;;5104050;28;1902;-76
2022/09/23 10:31:52;;;;;;;;;;;;;;;;;;5104376;28;889;-76
2022/09/23 10:34:26;;;;;;;;;;;;;;;;;;5103833;28;838;-77
2022/09/23 10:37:02;;;;;;;;;;;;;;;;;;5103807;28;1144;-78
2022/09/23 10:48:00;;;;;;;;;;;;;;;;;;5103799;28;601;-76
2022/09/23 10:50:47;;;;;;;;;;;;;;;;;;5085380;28;1945;-77
2022/09/23 10:53:22;;;;;;;;;;;;;;;;;;5103560;28;834;-77
2022/09/23 10:55:58;;;;;;;;;;;;;;;;;;5103593;28;1180;-78
2022/09/23 10:58:26;;;;;;;;;;;;;;;;;;5103520;28;948;-76
2022/09/23 11:00:54;;;;;;;;;;;;;;;;;;5103507;28;953;-77
2022/09/23 11:03:19;;;;;;;;;;;;;;;;;;5103464;28;993;-78
2022/09/23 11:05:47;;;;;;;;;;;;;;;;;;5103100;28;1160;-77
2022/09/23 11:08:17;;;;;;;;;;;;;;;;;;5103431;28;1076;-76
2022/09/23 11:10:56;;;;;;;;;;;;;;;;;;5103367;28;1890;-77
2022/09/23 11:13:51;;;;;;;;;;;;;;;;;;5103411;28;854;-77
2022/09/23 11:16:36;;;;;;;;;;;;;;;;;;5085359;28;1176;-77
2022/09/23 11:19:01;;;;;;;;;;;;;;;;;;5102991;28;854;-77
2022/09/23 11:21:26;;;;;;;;;;;;;;;;;;5103077;28;977;-77
2022/09/23 11:24:11;;;;;;;;;;;;;;;;;;5103283;28;842;-77
2022/09/23 11:26:36;;;;;;;;;;;;;;;;;;5102772;28;1243;-77
2022/09/23 11:29:09;;;;;;;;;;;;;;;;;;5102874;28;1885;-77
2022/09/23 11:31:34;;;;;;;;;;;;;;;;;;5103136;28;810;-77
2022/09/23 11:34:09;;;;;;;;;;;;;;;;;;5102844;28;834;-77
2022/09/23 11:36:55;;;;;;;;;;;;;;;;;;5102817;28;1184;-77
2022/09/23 11:39:26;;;;;;;;;;;;;;;;;;5101242;28;967;-77
2022/09/23 11:41:53;;;;;;;;;;;;;;;;;;5102958;28;779;-77
2022/09/23 11:44:25;;;;;;;;;;;;;;;;;;5102846;28;869;-77
2022/09/23 11:46:57;;;;;;;;;;;;;;;;;;5102495;28;1164;-77
2022/09/23 11:49:38;;;;;;;;;;;;;;;;;;5102703;28;1910;-78
2022/09/23 11:52:18;;;;;;;;;;;;;;;;;;5102758;28;778;-77
2022/09/23 11:54:50;;;;;;;;;;;;;;;;;;5102304;28;1112;-76
2022/09/23 11:57:34;;;;;;;;;;;;;;;;;;5102349;28;1281;-77
2022/09/23 12:00:01;;;;;;;;;;;;;;;;;;5102572;28;1000;-76
2022/09/23 12:02:42;;;;;;;;;;;;;;;;;;5102522;28;806;-76
2022/09/23 12:05:09;;;;;;;;;;;;;;;;;;5102159;28;1274;-75
2022/09/23 12:07:52;;;;;;;;;;;;;;;;;;5103053;28;853;-76
2022/09/23 12:10:18;;;;;;;;;;;;;;;;;;5102329;28;1930;-75
2022/09/23 12:12:47;;;;;;;;;;;;;;;;;;5102637;28;1089;-76
2022/09/23 12:15:21;;;;;;;;;;;;;;;;;;5102040;28;1116;-76
2022/09/23 12:17:50;;;;;;;;;;;;;;;;;;5096927;22;3527;-74
2022/09/23 12:20:15;;;;;;;;;;;;;;;;;;5061233;28;886;-74
2022/09/23 12:22:58;;;;;;;;;;;;;;;;;;5061479;28;831;-74
2022/09/23 12:25:33;;;;;;;;;;;;;;;;;;5061163;28;898;-74
2022/09/23 12:28:12;;;;;;;;;;;;;;;;;;5049944;28;1239;-74
2022/09/23 12:30:38;;;;;;;;;;;;;;;;;;5041189;28;1968;-74
2022/09/23 12:33:15;;;;;;;;;;;;;;;;;;5041092;28;1075;-74
2022/09/23 12:35:41;;;;;;;;;;;;;;;;;;5040892;28;910;-74
2022/09/23 12:38:13;;;;;;;;;;;;;;;;;;5041018;28;1164;-74
2022/09/23 12:40:43;;;;;;;;;;;;;;;;;;5023167;28;859;-74
2022/09/23 12:43:37;;;;;;;;;;;;;;;;;;5041019;28;815;-74
2022/09/23 12:46:18;;;;;;;;;;;;;;;;;;5027350;28;1479;-74
2022/09/23 12:48:56;;;;;;;;;;;;;;;;;;5041090;28;1236;-74
2022/09/23 12:51:22;;;;;;;;;;;;;;;;;;5039868;28;1894;-74
2022/09/23 12:53:53;;;;;;;;;;;;;;;;;;5040867;28;1546;-74
2022/09/23 12:56:21;;;;;;;;;;;;;;;;;;5040523;28;926;-74
2022/09/23 12:58:47;;;;;;;;;;;;;;;;;;5041220;28;1219;-74
2022/09/23 13:01:19;;;;;;;;;;;;;;;;;;5040792;28;858;-74
2022/09/23 13:06:38;;;;;;;;;;;;;;;;;;5040740;28;700;-74
2022/09/23 13:09:15;;;;;;;;;;;;;;;;;;5040731;28;1002;-74
2022/09/23 13:11:42;;;;;;;;;;;;;;;;;;5040595;28;895;-74
2022/09/23 13:14:11;;;;;;;;;;;;;;;;;;5040883;28;803;-74
2022/09/23 13:16:42;;;;;;;;;;;;;;;;;;5022604;28;1299;-74
2022/09/23 13:19:25;;;;;;;;;;;;;;;;;;5040596;28;819;-74
2022/09/23 13:21:53;;;;;;;;;;;;;;;;;;5040365;28;895;-74
2022/09/23 13:24:21;;;;;;;;;;;;;;;;;;5040520;28;835;-74
2022/09/23 13:27:04;;;;;;;;;;;;;;;;;;5040168;28;1211;-74
2022/09/23 13:29:39;;;;;;;;;;;;;;;;;;5040478;28;1910;-74
2022/09/23 13:32:10;;;;;;;;;;;;;;;;;;5040193;28;803;-74
2022/09/23 13:34:37;;;;;;;;;;;;;;;;;;5040167;28;873;-74
2022/09/23 13:37:19;;;;;;;;;;;;;;;;;;5040130;28;1160;-74
2022/09/23 13:39:44;;;;;;;;;;;;;;;;;;5040308;28;989;-74
2022/09/23 13:42:16;;;;;;;;;;;;;;;;;;5039995;28;840;-74
2022/09/23 13:44:41;;;;;;;;;;;;;;;;;;5040247;28;799;-74
2022/09/23 13:47:11;;;;;;;;;;;;;;;;;;5040220;28;1152;-74
2022/09/23 13:49:36;;;;;;;;;;;;;;;;;;5040146;28;1956;-74
2022/09/23 13:52:02;;;;;;;;;;;;;;;;;;5040111;28;1016;-74
2022/09/23 13:54:44;;;;;;;;;;;;;;;;;;5040042;28;847;-74
2022/09/23 13:57:22;;;;;;;;;;;;;;;;;;5040111;28;1254;-74
2022/09/23 13:59:48;;;;;;;;;;;;;;;;;;5040103;28;851;-74
2022/09/23 14:02:14;;;;;;;;;;;;;;;;;;5042122;28;898;-74
2022/09/23 14:04:40;;;;;;;;;;;;;;;;;;5043089;28;1167;-74
2022/09/23 14:07:06;;;;;;;;;;;;;;;;;;5043413;28;1156;-74
2022/09/23 14:09:32;;;;;;;;;;;;;;;;;;5043172;28;1914;-74
2022/09/23 14:11:59;;;;;;;;;;;;;;;;;;5043499;28;858;-74
2022/09/23 14:14:25;;;;;;;;;;;;;;;;;;5043263;28;997;-74
2022/09/23 14:16:51;;;;;;;;;;;;;;;;;;5043251;28;1247;-74
2022/09/23 14:19:17;;;;;;;;;;;;;;;;;;5043270;28;811;-74
2022/09/23 14:21:45;;;;;;;;;;;;;;;;;;5043189;28;803;-74
2022/09/23 14:24:12;;;;;;;;;;;;;;;;;;5043042;28;809;-74
2022/09/23 14:26:38;;;;;;;;;;;;;;;;;;5042818;28;1251;-74
2022/09/23 14:29:04;;;;;;;;;;;;;;;;;;5043000;28;1001;-74
2022/09/23 14:31:31;;;;;;;;;;;;;;;;;;5025255;28;1898;-74
2022/09/23 14:33:56;;;;;;;;;;;;;;;;;;5042949;28;826;-74
2022/09/23 14:39:08;;;;;;;;;;;;;;;;;;5043184;28;609;-75
2022/09/23 14:41:37;;;;;;;;;;;;;;;;;;5042982;28;834;-75
2022/09/23 14:44:03;;;;;;;;;;;;;;;;;;5042884;28;819;-74
2022/09/23 14:46:31;;;;;;;;;;;;;;;;;;5042673;28;866;-74
2022/09/23 14:48:56;;;;;;;;;;;;;;;;;;5042823;28;1259;-74
2022/09/23 14:51:28;;;;;;;;;;;;;;;;;;5042648;28;1890;-74
2022/09/23 14:53:53;;;;;;;;;;;;;;;;;;5042886;28;831;-74
2022/09/23 14:56:19;;;;;;;;;;;;;;;;;;5042605;28;1184;-74
2022/09/23 14:58:46;;;;;;;;;;;;;;;;;;5042746;28;1140;-74
2022/09/23 15:01:30;;;;;;;;;;;;;;;;;;5042759;28;807;-74
2022/09/23 15:03:57;;;;;;;;;;;;;;;;;;5042376;28;858;-74
2022/09/23 15:06:23;;;;;;;;;;;;;;;;;;5042472;28;819;-74
2022/09/23 15:08:49;;;;;;;;;;;;;;;;;;5042682;28;1118;-74
2022/09/23 15:11:14;;;;;;;;;;;;;;;;;;5042517;28;1955;-74
2022/09/23 15:13:40;;;;;;;;;;;;;;;;;;5041726;28;950;-74
2022/09/23 15:16:06;;;;;;;;;;;;;;;;;;5042209;28;883;-74
2022/09/23 15:18:35;;;;;;;;;;;;;;;;;;5042370;28;1140;-76
2022/09/23 15:21:11;;;;;;;;;;;;;;;;;;5024525;28;1372;-74
2022/09/23 15:23:39;;;;;;;;;;;;;;;;;;5042345;28;1012;-74
2022/09/23 15:26:05;;;;;;;;;;;;;;;;;;5024029;28;870;-74
2022/09/23 15:28:31;;;;;;;;;;;;;;;;;;5042170;28;1160;-74
2022/09/23 15:30:56;;;;;;;;;;;;;;;;;;5041900;28;1934;-74
2022/09/23 15:33:26;;;;;;;;;;;;;;;;;;5042256;28;875;-76
2022/09/23 15:35:52;;;;;;;;;;;;;;;;;;5042063;28;858;-74
2022/09/23 15:38:17;;;;;;;;;;;;;;;;;;5042116;28;1219;-75
2022/09/23 15:40:42;;;;;;;;;;;;;;;;;;5041903;28;1048;-75
2022/09/23 15:43:15;;;;;;;;;;;;;;;;;;5024186;28;1017;-75
2022/09/23 15:45:46;;;;;;;;;;;;;;;;;;5042051;28;902;-75
2022/09/23 15:48:16;;;;;;;;;;;;;;;;;;5023378;28;1291;-75
2022/09/23 15:50:41;;;;;;;;;;;;;;;;;;5041727;28;1894;-75
2022/09/23 15:53:07;;;;;;;;;;;;;;;;;;5041896;28;854;-75
2022/09/23 15:55:32;;;;;;;;;;;;;;;;;;5041537;28;886;-75
2022/09/23 15:57:58;;;;;;;;;;;;;;;;;;5041788;28;1144;-75
2022/09/23 16:00:23;;;;;;;;;;;;;;;;;;5041613;28;810;-75
2022/09/23 16:02:49;;;;;;;;;;;;;;;;;;5041756;28;922;-75
2022/09/23 16:05:32;;;;;;;;;;;;;;;;;;5041432;28;866;-75
2022/09/23 16:07:58;;;;;;;;;;;;;;;;;;5041615;28;1227;-76
2022/09/23 16:10:23;;;;;;;;;;;;;;;;;;5041505;28;1899;-75
2022/09/23 16:12:50;;;;;;;;;;;;;;;;;;5043549;28;839;-76
2022/09/23 16:15:16;;;;;;;;;;;;;;;;;;5051927;28;811;-76
2022/09/23 16:17:43;;;;;;;;;;;;;;;;;;5027092;28;1405;-75
2022/09/23 16:20:09;;;;;;;;;;;;;;;;;;5041586;28;838;-75
2022/09/23 16:22:34;;;;;;;;;;;;;;;;;;5041424;28;846;-75
2022/09/23 16:24:59;;;;;;;;;;;;;;;;;;5041019;28;961;-75
2022/09/23 16:27:24;;;;;;;;;;;;;;;;;;5041181;28;1200;-75
2022/09/23 16:29:50;;;;;;;;;;;;;;;;;;5041333;28;1930;-74
2022/09/23 16:32:15;;;;;;;;;;;;;;;;;;5041080;28;1049;-74
2022/09/23 16:34:40;;;;;;;;;;;;;;;;;;5023237;28;1406;-74
2022/09/23 16:37:10;;;;;;;;;;;;;;;;;;5040862;28;1180;-74
2022/09/23 16:39:35;;;;;;;;;;;;;;;;;;5041186;28;880;-74
2022/09/23 16:42:01;;;;;;;;;;;;;;;;;;5040916;28;990;-74
2022/09/23 16:44:26;;;;;;;;;;;;;;;;;;5041071;28;822;-74
2022/09/23 16:46:51;;;;;;;;;;;;;;;;;;5040733;28;1286;-74
2022/09/23 16:49:16;;;;;;;;;;;;;;;;;;5040874;28;1902;-74
2022/09/23 16:51:42;;;;;;;;;;;;;;;;;;5040657;28;916;-74
2022/09/23 16:54:09;;;;;;;;;;;;;;;;;;5041167;28;874;-74
2022/09/23 16:56:35;;;;;;;;;;;;;;;;;;5040426;28;831;-74
2022/09/23 16:59:00;;;;;;;;;;;;;;;;;;5040870;28;1196;-74
2022/09/23 17:04:10;;;;;;;;;;;;;;;;;;5040944;28;621;-74
2022/09/23 17:06:41;;;;;;;;;;;;;;;;;;5040467;28;1040;-74
2022/09/23 17:09:06;;;;;;;;;;;;;;;;;;5041145;28;902;-74
2022/09/23 17:11:31;;;;;;;;;;;;;;;;;;5040426;28;1893;-74
2022/09/23 17:13:57;;;;;;;;;;;;;;;;;;5040755;28;898;-74
2022/09/23 17:16:26;;;;;;;;;;;;;;;;;;5040485;28;857;-74
2022/09/23 17:18:54;;;;;;;;;;;;;;;;;;5040448;28;1257;-74
2022/09/23 17:21:19;;;;;;;;;;;;;;;;;;5040553;28;917;-74
2022/09/23 17:23:44;;;;;;;;;;;;;;;;;;5040555;28;1052;-74
2022/09/23 17:26:11;;;;;;;;;;;;;;;;;;5040320;28;918;-74
2022/09/23 17:28:36;;;;;;;;;;;;;;;;;;5040328;28;1195;-76
2022/09/23 17:31:02;;;;;;;;;;;;;;;;;;5040486;28;1973;-75
2022/09/23 17:33:28;;;;;;;;;;;;;;;;;;5040134;28;862;-75
2022/09/23 17:35:55;;;;;;;;;;;;;;;;;;5040561;28;933;-76
2022/09/23 17:38:21;;;;;;;;;;;;;;;;;;5043782;28;1305;-76
2022/09/23 17:40:53;;;;;;;;;;;;;;;;;;5043867;28;894;-76
2022/09/23 17:43:24;;;;;;;;;;;;;;;;;;5043680;28;893;-76
2022/09/23 17:45:50;;;;;;;;;;;;;;;;;;5043653;28;823;-74
2022/09/23 17:48:20;;;;;;;;;;;;;;;;;;5043545;28;1160;-74